sensor_id;sensor_type;location;lat;lon;timestamp;pressure;altitude;pressure_sealevel;temperature;humidity
61870;BME280;47810;42.264;23.826;2023-07-08T00:02:10;93976.22;;;18.66;75.28
61870;BME280;47810;42.264;23.826;2023-07-08T00:04:37;93995.22;;;18.82;75.16
61870;BME280;47810;42.264;23.826;2023-07-08T00:07:02;93988.16;;;18.71;74.08
61870;BME280;47810;42.264;23.826;2023-07-08T00:09:28;93995.25;;;18.62;74.16
61870;BME280;47810;42.264;23.826;2023-07-08T00:11:56;93982.41;;;18.66;73.64
61870;BME280;47810;42.264;23.826;2023-07-08T00:14:24;93990.72;;;18.63;72.93
61870;BME280;47810;42.264;23.826;2023-07-08T00:16:50;93977.44;;;18.71;73.20
61870;BME280;47810;42.264;23.826;2023-07-08T00:19:16;93967.66;;;18.62;71.99
61870;BME280;47810;42.264;23.826;2023-07-08T00:21:44;93965.66;;;18.64;72.40
61870;BME280;47810;42.264;23.826;2023-07-08T00:24:10;93953.13;;;18.74;72.25
61870;BME280;47810;42.264;23.826;2023-07-08T00:26:36;93952.16;;;18.75;71.92
61870;BME280;47810;42.264;23.826;2023-07-08T00:29:02;93951.00;;;18.78;71.27
61870;BME280;47810;42.264;23.826;2023-07-08T00:31:27;93958.03;;;18.79;71.33
61870;BME280;47810;42.264;23.826;2023-07-08T00:33:58;93961.25;;;18.82;69.35
61870;BME280;47810;42.264;23.826;2023-07-08T00:36:24;93947.09;;;18.72;70.33
61870;BME280;47810;42.264;23.826;2023-07-08T00:38:50;93959.69;;;18.90;71.19
61870;BME280;47810;42.264;23.826;2023-07-08T00:41:27;93949.00;;;18.80;70.05
61870;BME280;47810;42.264;23.826;2023-07-08T00:43:54;93947.09;;;18.72;70.00
61870;BME280;47810;42.264;23.826;2023-07-08T00:49:19;93935.81;;;18.78;68.19
61870;BME280;47810;42.264;23.826;2023-07-08T00:51:40;93930.16;;;18.81;68.31
61870;BME280;47810;42.264;23.826;2023-07-08T00:54:12;93929.03;;;18.74;69.64
61870;BME280;47810;42.264;23.826;2023-07-08T00:59:18;93931.88;;;18.63;68.36
61870;BME280;47810;42.264;23.826;2023-07-08T01:01:45;93933.03;;;18.60;68.47
61870;BME280;47810;42.264;23.826;2023-07-08T01:04:12;93932.97;;;18.70;68.91
61870;BME280;47810;42.264;23.826;2023-07-08T01:06:41;93928.81;;;18.58;67.53
61870;BME280;47810;42.264;23.826;2023-07-08T01:09:11;93937.81;;;18.57;68.40
61870;BME280;47810;42.264;23.826;2023-07-08T01:11:39;93937.81;;;18.57;66.36
61870;BME280;47810;42.264;23.826;2023-07-08T01:14:06;93935.41;;;18.63;66.61
61870;BME280;47810;42.264;23.826;2023-07-08T01:16:34;93939.22;;;18.61;65.53
61870;BME280;47810;42.264;23.826;2023-07-08T01:19:00;93939.63;;;18.66;66.04
61870;BME280;47810;42.264;23.826;2023-07-08T01:23:59;93952.88;;;18.58;69.79
61870;BME280;47810;42.264;23.826;2023-07-08T01:26:26;93950.56;;;18.26;72.11
61870;BME280;47810;42.264;23.826;2023-07-08T01:28:54;93943.31;;;17.99;71.87
61870;BME280;47810;42.264;23.826;2023-07-08T01:33:49;93926.44;;;18.08;68.83
61870;BME280;47810;42.264;23.826;2023-07-08T01:36:16;93923.28;;;18.22;67.76
61870;BME280;47810;42.264;23.826;2023-07-08T01:38:44;93919.34;;;18.26;67.02
61870;BME280;47810;42.264;23.826;2023-07-08T01:41:12;93917.38;;;18.28;66.82
61870;BME280;47810;42.264;23.826;2023-07-08T01:43:37;93923.13;;;18.33;66.30
61870;BME280;47810;42.264;23.826;2023-07-08T01:46:04;93922.44;;;18.31;66.62
61870;BME280;47810;42.264;23.826;2023-07-08T01:48:37;93912.47;;;18.24;66.02
61870;BME280;47810;42.264;23.826;2023-07-08T01:51:04;93918.47;;;18.35;66.41
61870;BME280;47810;42.264;23.826;2023-07-08T01:53:34;93915.78;;;18.35;65.94
61870;BME280;47810;42.264;23.826;2023-07-08T01:56:00;93907.69;;;18.27;65.45
61870;BME280;47810;42.264;23.826;2023-07-08T01:58:26;93901.75;;;18.33;64.86
61870;BME280;47810;42.264;23.826;2023-07-08T02:00:54;93906.91;;;18.45;63.63
61870;BME280;47810;42.264;23.826;2023-07-08T02:03:20;93907.59;;;18.47;63.39
61870;BME280;47810;42.264;23.826;2023-07-08T02:05:47;93906.59;;;18.48;63.33
61870;BME280;47810;42.264;23.826;2023-07-08T02:08:14;93919.56;;;18.52;62.88
61870;BME280;47810;42.264;23.826;2023-07-08T02:10:40;93910.81;;;18.50;64.34
61870;BME280;47810;42.264;23.826;2023-07-08T02:13:07;93904.66;;;18.50;64.51
61870;BME280;47810;42.264;23.826;2023-07-08T02:15:34;93905.47;;;18.50;65.98
61870;BME280;47810;42.264;23.826;2023-07-08T02:17:59;93894.53;;;18.44;65.13
61870;BME280;47810;42.264;23.826;2023-07-08T02:20:25;93913.34;;;18.52;62.79
61870;BME280;47810;42.264;23.826;2023-07-08T02:22:51;93912.34;;;18.62;62.43
61870;BME280;47810;42.264;23.826;2023-07-08T02:25:17;93911.34;;;18.63;62.86
61870;BME280;47810;42.264;23.826;2023-07-08T02:27:42;93911.38;;;18.54;63.01
61870;BME280;47810;42.264;23.826;2023-07-08T02:30:08;93910.66;;;18.52;61.83
61870;BME280;47810;42.264;23.826;2023-07-08T02:32:34;93917.81;;;18.61;61.79
61870;BME280;47810;42.264;23.826;2023-07-08T02:35:08;93925.72;;;18.62;60.99
61870;BME280;47810;42.264;23.826;2023-07-08T02:37:34;93927.84;;;18.59;60.92
61870;BME280;47810;42.264;23.826;2023-07-08T02:40:01;93930.88;;;18.64;61.30
61870;BME280;47810;42.264;23.826;2023-07-08T02:42:26;93920.41;;;18.53;60.70
61870;BME280;47810;42.264;23.826;2023-07-08T02:44:53;93933.06;;;18.51;61.90
61870;BME280;47810;42.264;23.826;2023-07-08T02:49:48;93930.22;;;18.62;61.51
61870;BME280;47810;42.264;23.826;2023-07-08T02:52:16;93932.75;;;18.54;61.98
61870;BME280;47810;42.264;23.826;2023-07-08T02:54:42;93939.22;;;18.61;62.46
61870;BME280;47810;42.264;23.826;2023-07-08T02:57:08;93938.69;;;18.48;60.68
61870;BME280;47810;42.264;23.826;2023-07-08T02:59:34;93947.66;;;18.66;60.69
61870;BME280;47810;42.264;23.826;2023-07-08T03:02:00;93943.47;;;18.54;61.82
61870;BME280;47810;42.264;23.826;2023-07-08T03:04:28;93940.94;;;18.52;61.09
61870;BME280;47810;42.264;23.826;2023-07-08T03:06:55;93939.22;;;18.61;60.33
61870;BME280;47810;42.264;23.826;2023-07-08T03:09:22;93946.25;;;18.62;60.94
61870;BME280;47810;42.264;23.826;2023-07-08T03:11:48;93951.31;;;18.65;61.79
61870;BME280;47810;42.264;23.826;2023-07-08T03:14:17;93949.31;;;18.67;60.97
61870;BME280;47810;42.264;23.826;2023-07-08T03:16:43;93947.94;;;18.73;61.52
61870;BME280;47810;42.264;23.826;2023-07-08T03:19:10;93947.63;;;18.76;60.69
61870;BME280;47810;42.264;23.826;2023-07-08T03:21:36;93945.56;;;18.60;61.55
61870;BME280;47810;42.264;23.826;2023-07-08T03:24:02;93945.66;;;18.68;61.41
61870;BME280;47810;42.264;23.826;2023-07-08T03:26:27;93950.16;;;18.77;61.52
61870;BME280;47810;42.264;23.826;2023-07-08T03:31:22;93956.72;;;18.36;64.01
61870;BME280;47810;42.264;23.826;2023-07-08T03:33:48;93955.34;;;18.32;63.35
61870;BME280;47810;42.264;23.826;2023-07-08T03:36:15;93966.19;;;18.30;64.36
61870;BME280;47810;42.264;23.826;2023-07-08T03:38:54;93971.81;;;18.37;62.76
61870;BME280;47810;42.264;23.826;2023-07-08T03:43:49;93978.06;;;18.55;62.21
61870;BME280;47810;42.264;23.826;2023-07-08T03:46:17;93977.22;;;18.55;63.25
61870;BME280;47810;42.264;23.826;2023-07-08T03:48:45;93987.22;;;18.62;63.16
61870;BME280;47810;42.264;23.826;2023-07-08T03:51:33;93990.44;;;18.66;63.40
61870;BME280;47810;42.264;23.826;2023-07-08T03:56:28;93980.00;;;18.82;63.90
61870;BME280;47810;42.264;23.826;2023-07-08T03:58:54;93979.44;;;18.79;64.81
61870;BME280;47810;42.264;23.826;2023-07-08T04:01:21;93976.91;;;18.77;64.72
61870;BME280;47810;42.264;23.826;2023-07-08T04:03:49;93981.38;;;18.87;64.78
61870;BME280;47810;42.264;23.826;2023-07-08T04:06:15;93984.34;;;18.83;64.59
61870;BME280;47810;42.264;23.826;2023-07-08T04:08:41;93988.53;;;18.96;65.47
61870;BME280;47810;42.264;23.826;2023-07-08T04:11:11;93997.94;;;19.00;65.62
61870;BME280;47810;42.264;23.826;2023-07-08T04:13:38;94003.56;;;18.97;66.05
61870;BME280;47810;42.264;23.826;2023-07-08T04:16:04;93990.91;;;18.99;67.81
61870;BME280;47810;42.264;23.826;2023-07-08T04:18:30;94000.22;;;18.95;68.93
61870;BME280;47810;42.264;23.826;2023-07-08T04:20:59;94000.81;;;18.89;69.68
61870;BME280;47810;42.264;23.826;2023-07-08T04:23:25;93998.84;;;18.81;70.89
61870;BME280;47810;42.264;23.826;2023-07-08T04:25:52;93999.13;;;18.88;70.54
61870;BME280;47810;42.264;23.826;2023-07-08T04:28:20;93993.78;;;18.88;70.14
61870;BME280;47810;42.264;23.826;2023-07-08T04:30:48;93992.06;;;18.87;70.49
61870;BME280;47810;42.264;23.826;2023-07-08T04:33:16;93996.13;;;18.91;70.49
61870;BME280;47810;42.264;23.826;2023-07-08T04:35:42;93985.84;;;18.96;69.17
61870;BME280;47810;42.264;23.826;2023-07-08T04:38:26;93982.28;;;19.05;70.09
61870;BME280;47810;42.264;23.826;2023-07-08T04:40:53;93984.97;;;19.05;69.60
61870;BME280;47810;42.264;23.826;2023-07-08T04:43:20;93990.03;;;19.08;68.06
61870;BME280;47810;42.264;23.826;2023-07-08T04:45:50;93988.03;;;19.10;68.20
61870;BME280;47810;42.264;23.826;2023-07-08T04:48:16;93990.22;;;19.24;68.60
61870;BME280;47810;42.264;23.826;2023-07-08T04:50:48;93983.13;;;19.33;69.08
61870;BME280;47810;42.264;23.826;2023-07-08T04:53:14;93979.38;;;19.44;68.81
61870;BME280;47810;42.264;23.826;2023-07-08T04:55:40;93983.63;;;19.64;67.92
61870;BME280;47810;42.264;23.826;2023-07-08T04:58:07;93982.06;;;19.44;66.32
61870;BME280;47810;42.264;23.826;2023-07-08T05:00:32;93983.19;;;19.41;65.04
61870;BME280;47810;42.264;23.826;2023-07-08T05:02:58;93988.78;;;19.48;65.78
61870;BME280;47810;42.264;23.826;2023-07-08T05:05:24;93989.19;;;19.53;65.03
61870;BME280;47810;42.264;23.826;2023-07-08T05:07:50;93986.31;;;19.64;65.36
61870;BME280;47810;42.264;23.826;2023-07-08T05:10:16;93995.06;;;19.66;65.04
61870;BME280;47810;42.264;23.826;2023-07-08T05:12:43;93998.91;;;19.82;65.10
61870;BME280;47810;42.264;23.826;2023-07-08T05:15:09;94004.25;;;19.82;64.74
61870;BME280;47810;42.264;23.826;2023-07-08T05:17:37;93996.28;;;19.90;64.40
61870;BME280;47810;42.264;23.826;2023-07-08T05:20:08;93999.66;;;19.92;64.30
61870;BME280;47810;42.264;23.826;2023-07-08T05:22:34;93999.75;;;20.00;64.54
61870;BME280;47810;42.264;23.826;2023-07-08T05:25:00;94001.44;;;20.01;64.39
61870;BME280;47810;42.264;23.826;2023-07-08T05:27:27;94007.84;;;20.26;64.39
61870;BME280;47810;42.264;23.826;2023-07-08T05:29:52;94005.94;;;20.18;63.36
61870;BME280;47810;42.264;23.826;2023-07-08T05:32:20;94016.34;;;20.21;67.87
61870;BME280;47810;42.264;23.826;2023-07-08T05:34:46;94010.38;;;20.28;68.88
61870;BME280;47810;42.264;23.826;2023-07-08T05:37:13;94002.41;;;20.36;68.13
61870;BME280;47810;42.264;23.826;2023-07-08T05:39:39;93995.13;;;20.28;67.86
61870;BME280;47810;42.264;23.826;2023-07-08T05:42:07;94005.00;;;20.28;68.87
61870;BME280;47810;42.264;23.826;2023-07-08T05:44:32;94003.69;;;20.32;68.22
61870;BME280;47810;42.264;23.826;2023-07-08T05:46:59;93993.25;;;20.46;66.16
61870;BME280;47810;42.264;23.826;2023-07-08T05:49:27;93991.25;;;20.48;65.30
61870;BME280;47810;42.264;23.826;2023-07-08T05:51:53;93989.03;;;20.44;64.47
61870;BME280;47810;42.264;23.826;2023-07-08T05:54:19;93991.56;;;20.45;65.21
61870;BME280;47810;42.264;23.826;2023-07-08T05:56:46;93993.03;;;20.40;63.67
61870;BME280;47810;42.264;23.826;2023-07-08T05:59:13;93986.53;;;20.42;64.37
61870;BME280;47810;42.264;23.826;2023-07-08T06:01:39;93990.41;;;20.48;63.36
61870;BME280;47810;42.264;23.826;2023-07-08T06:04:05;93981.13;;;20.60;63.18
61870;BME280;47810;42.264;23.826;2023-07-08T06:06:30;93986.56;;;20.68;62.30
61870;BME280;47810;42.264;23.826;2023-07-08T06:08:56;93986.19;;;20.63;62.62
61870;BME280;47810;42.264;23.826;2023-07-08T06:11:21;93984.00;;;20.67;62.32
61870;BME280;47810;42.264;23.826;2023-07-08T06:13:51;93984.53;;;20.70;61.82
61870;BME280;47810;42.264;23.826;2023-07-08T06:16:16;93983.91;;;20.77;61.67
61870;BME280;47810;42.264;23.826;2023-07-08T06:18:42;93989.41;;;20.93;61.80
61870;BME280;47810;42.264;23.826;2023-07-08T06:21:07;93988.84;;;20.89;59.16
61870;BME280;47810;42.264;23.826;2023-07-08T06:23:33;93996.44;;;20.94;59.66
61870;BME280;47810;42.264;23.826;2023-07-08T06:25:58;94001.91;;;20.84;60.24
61870;BME280;47810;42.264;23.826;2023-07-08T06:28:24;94006.53;;;21.00;61.27
61870;BME280;47810;42.264;23.826;2023-07-08T06:30:49;94005.53;;;21.01;59.40
61870;BME280;47810;42.264;23.826;2023-07-08T06:33:17;94005.28;;;21.12;58.23
61870;BME280;47810;42.264;23.826;2023-07-08T06:35:42;94004.53;;;21.02;56.99
61870;BME280;47810;42.264;23.826;2023-07-08T06:38:08;94009.56;;;21.05;57.31
61870;BME280;47810;42.264;23.826;2023-07-08T06:40:34;94008.94;;;21.11;56.94
61870;BME280;47810;42.264;23.826;2023-07-08T06:42:59;93993.34;;;21.15;57.27
61870;BME280;47810;42.264;23.826;2023-07-08T06:45:25;93990.72;;;21.23;59.28
61870;BME280;47810;42.264;23.826;2023-07-08T06:47:50;93992.25;;;21.34;57.02
61870;BME280;47810;42.264;23.826;2023-07-08T06:50:16;93987.94;;;21.41;58.07
61870;BME280;47810;42.264;23.826;2023-07-08T06:52:41;93978.44;;;21.55;58.64
61870;BME280;47810;42.264;23.826;2023-07-08T06:55:08;93988.19;;;21.64;56.57
61870;BME280;47810;42.264;23.826;2023-07-08T06:57:34;93989.34;;;21.61;56.17
61870;BME280;47810;42.264;23.826;2023-07-08T06:59:59;93989.69;;;21.67;56.83
61870;BME280;47810;42.264;23.826;2023-07-08T07:02:26;93988.19;;;21.64;58.37
61870;BME280;47810;42.264;23.826;2023-07-08T07:04:51;93989.22;;;21.79;57.42
61870;BME280;47810;42.264;23.826;2023-07-08T07:07:17;93986.72;;;21.86;58.60
61870;BME280;47810;42.264;23.826;2023-07-08T07:09:42;93987.72;;;21.85;57.17
61870;BME280;47810;42.264;23.826;2023-07-08T07:12:08;93987.91;;;21.83;56.99
61870;BME280;47810;42.264;23.826;2023-07-08T07:14:34;93987.75;;;21.93;58.79
61870;BME280;47810;42.264;23.826;2023-07-08T07:16:59;93994.81;;;22.02;59.57
61870;BME280;47810;42.264;23.826;2023-07-08T07:19:25;94002.94;;;22.19;59.72
61870;BME280;47810;42.264;23.826;2023-07-08T07:21:51;94001.53;;;22.15;58.74
61870;BME280;47810;42.264;23.826;2023-07-08T07:24:17;94017.38;;;22.18;58.89
61870;BME280;47810;42.264;23.826;2023-07-08T07:26:43;94015.72;;;22.41;60.92
61870;BME280;47810;42.264;23.826;2023-07-08T07:29:10;94011.69;;;22.29;58.88
61870;BME280;47810;42.264;23.826;2023-07-08T07:31:35;94015.88;;;22.31;59.92
61870;BME280;47810;42.264;23.826;2023-07-08T07:34:01;94020.78;;;22.44;58.56
61870;BME280;47810;42.264;23.826;2023-07-08T07:36:30;94030.00;;;22.42;58.75
61870;BME280;47810;42.264;23.826;2023-07-08T07:38:56;94037.56;;;22.30;56.74
61870;BME280;47810;42.264;23.826;2023-07-08T07:41:22;94035.47;;;22.07;58.07
61870;BME280;47810;42.264;23.826;2023-07-08T07:43:48;94048.47;;;22.20;56.52
61870;BME280;47810;42.264;23.826;2023-07-08T07:46:15;94046.31;;;22.32;55.14
61870;BME280;47810;42.264;23.826;2023-07-08T07:48:40;94038.25;;;22.40;56.40
61870;BME280;47810;42.264;23.826;2023-07-08T07:51:07;94051.88;;;22.55;56.38
61870;BME280;47810;42.264;23.826;2023-07-08T07:53:36;94037.22;;;22.82;54.47
61870;BME280;47810;42.264;23.826;2023-07-08T07:56:03;94057.09;;;22.81;55.07
61870;BME280;47810;42.264;23.826;2023-07-08T07:58:31;94066.81;;;22.82;55.95
61870;BME280;47810;42.264;23.826;2023-07-08T08:00:58;94064.16;;;23.07;55.85
61870;BME280;47810;42.264;23.826;2023-07-08T08:03:24;94060.47;;;22.99;53.55
61870;BME280;47810;42.264;23.826;2023-07-08T08:05:50;94064.94;;;23.23;53.83
61870;BME280;47810;42.264;23.826;2023-07-08T08:08:16;94066.13;;;23.21;55.43
61870;BME280;47810;42.264;23.826;2023-07-08T08:10:43;94058.75;;;23.15;55.08
61870;BME280;47810;42.264;23.826;2023-07-08T08:13:12;94057.00;;;23.30;55.01
61870;BME280;47810;42.264;23.826;2023-07-08T08:15:38;94051.34;;;23.64;54.79
61870;BME280;47810;42.264;23.826;2023-07-08T08:18:03;94057.03;;;23.86;54.44
61870;BME280;47810;42.264;23.826;2023-07-08T08:20:32;94064.34;;;24.00;53.15
61870;BME280;47810;42.264;23.826;2023-07-08T08:23:00;94048.88;;;23.94;52.37
61870;BME280;47810;42.264;23.826;2023-07-08T08:25:31;94044.28;;;24.03;51.57
61870;BME280;47810;42.264;23.826;2023-07-08T08:28:02;94046.66;;;23.98;51.47
61870;BME280;47810;42.264;23.826;2023-07-08T08:30:28;94047.13;;;24.09;49.88
61870;BME280;47810;42.264;23.826;2023-07-08T08:32:54;94045.34;;;23.93;51.24
61870;BME280;47810;42.264;23.826;2023-07-08T08:35:20;94047.31;;;24.31;51.82
61870;BME280;47810;42.264;23.826;2023-07-08T08:37:45;94051.50;;;24.42;52.41
61870;BME280;47810;42.264;23.826;2023-07-08T08:40:15;94059.53;;;24.50;51.68
61870;BME280;47810;42.264;23.826;2023-07-08T08:42:46;94059.53;;;24.73;51.59
61870;BME280;47810;42.264;23.826;2023-07-08T08:45:17;94058.06;;;24.62;51.23
61870;BME280;47810;42.264;23.826;2023-07-08T08:47:57;94057.84;;;24.49;51.85
61870;BME280;47810;42.264;23.826;2023-07-08T08:50:44;94052.75;;;24.54;51.97
61870;BME280;47810;42.264;23.826;2023-07-08T08:53:14;94054.59;;;24.76;50.85
61870;BME280;47810;42.264;23.826;2023-07-08T08:55:41;94046.16;;;24.94;50.61
61870;BME280;47810;42.264;23.826;2023-07-08T09:03:43;94045.25;;;25.40;52.06
61870;BME280;47810;42.264;23.826;2023-07-08T09:06:11;94056.25;;;25.53;49.67
61870;BME280;47810;42.264;23.826;2023-07-08T09:08:37;94033.84;;;25.29;48.31
61870;BME280;47810;42.264;23.826;2023-07-08T09:13:35;94042.69;;;25.68;49.15
61870;BME280;47810;42.264;23.826;2023-07-08T09:16:05;94045.34;;;25.91;48.18
61870;BME280;47810;42.264;23.826;2023-07-08T09:18:33;94052.72;;;26.18;47.95
61870;BME280;47810;42.264;23.826;2023-07-08T09:21:04;94034.69;;;25.89;48.10
61870;BME280;47810;42.264;23.826;2023-07-08T09:23:32;94029.88;;;26.06;48.10
61870;BME280;47810;42.264;23.826;2023-07-08T09:26:12;94040.56;;;26.29;47.64
61870;BME280;47810;42.264;23.826;2023-07-08T09:28:40;94045.34;;;26.27;45.91
61870;BME280;47810;42.264;23.826;2023-07-08T09:31:07;94038.22;;;26.05;46.80
61870;BME280;47810;42.264;23.826;2023-07-08T09:33:36;94041.16;;;26.24;46.54
61870;BME280;47810;42.264;23.826;2023-07-08T09:36:03;94044.00;;;26.38;45.09
61870;BME280;47810;42.264;23.826;2023-07-08T09:38:41;94036.03;;;26.73;46.60
61870;BME280;47810;42.264;23.826;2023-07-08T09:41:06;94039.00;;;26.78;49.19
61870;BME280;47810;42.264;23.826;2023-07-08T09:43:37;94045.56;;;26.90;43.03
61870;BME280;47810;42.264;23.826;2023-07-08T09:46:03;94040.78;;;26.92;45.95
61870;BME280;47810;42.264;23.826;2023-07-08T09:48:29;94038.34;;;26.97;45.45
61870;BME280;47810;42.264;23.826;2023-07-08T09:50:58;94026.84;;;26.95;45.22
61870;BME280;47810;42.264;23.826;2023-07-08T09:53:24;94031.31;;;27.09;43.29
61870;BME280;47810;42.264;23.826;2023-07-08T09:55:51;94036.16;;;25.77;45.18
61870;BME280;47810;42.264;23.826;2023-07-08T09:58:25;94029.97;;;26.13;46.14
61870;BME280;47810;42.264;23.826;2023-07-08T10:00:58;94030.94;;;26.63;46.62
61870;BME280;47810;42.264;23.826;2023-07-08T10:03:28;94028.72;;;26.94;43.71
61870;BME280;47810;42.264;23.826;2023-07-08T10:05:57;94031.09;;;26.40;45.42
61870;BME280;47810;42.264;23.826;2023-07-08T10:08:28;94031.28;;;26.53;45.19
61870;BME280;47810;42.264;23.826;2023-07-08T10:11:02;94023.25;;;26.66;44.20
61870;BME280;47810;42.264;23.826;2023-07-08T10:13:41;94014.59;;;27.27;44.03
61870;BME280;47810;42.264;23.826;2023-07-08T10:18:39;94030.63;;;26.73;44.47
61870;BME280;47810;42.264;23.826;2023-07-08T10:21:11;94024.13;;;26.31;47.10
61870;BME280;47810;42.264;23.826;2023-07-08T10:26:22;94022.19;;;26.24;46.16
61870;BME280;47810;42.264;23.826;2023-07-08T10:28:54;94021.72;;;26.57;45.26
61870;BME280;47810;42.264;23.826;2023-07-08T10:31:40;94021.06;;;26.77;45.42
61870;BME280;47810;42.264;23.826;2023-07-08T10:39:20;94006.09;;;27.30;44.32
61870;BME280;47810;42.264;23.826;2023-07-08T10:47:14;93999.00;;;27.29;43.02
61870;BME280;47810;42.264;23.826;2023-07-08T11:00:10;93995.66;;;27.69;43.53
61870;BME280;47810;42.264;23.826;2023-07-08T11:07:54;93983.97;;;28.16;44.15
61870;BME280;47810;42.264;23.826;2023-07-08T11:10:24;93984.78;;;28.10;42.12
61870;BME280;47810;42.264;23.826;2023-07-08T11:13:35;93973.09;;;28.09;41.65
61870;BME280;47810;42.264;23.826;2023-07-08T11:15:43;93980.75;;;28.54;42.91
61870;BME280;47810;42.264;23.826;2023-07-08T11:18:13;93965.81;;;28.30;40.41
61870;BME280;47810;42.264;23.826;2023-07-08T11:23:22;93971.31;;;27.82;42.33
61870;BME280;47810;42.264;23.826;2023-07-08T11:25:50;93969.56;;;28.16;41.09
61870;BME280;47810;42.264;23.826;2023-07-08T11:28:19;93968.47;;;27.97;42.82
61870;BME280;47810;42.264;23.826;2023-07-08T11:30:46;93972.38;;;27.81;43.14
61870;BME280;47810;42.264;23.826;2023-07-08T11:33:13;93967.28;;;28.26;42.05
61870;BME280;47810;42.264;23.826;2023-07-08T11:35:41;93971.94;;;28.45;41.64
61870;BME280;47810;42.264;23.826;2023-07-08T11:38:11;93960.25;;;28.51;40.42
61870;BME280;47810;42.264;23.826;2023-07-08T11:40:49;93963.53;;;28.27;41.26
61870;BME280;47810;42.264;23.826;2023-07-08T11:43:19;93974.69;;;27.84;41.40
61870;BME280;47810;42.264;23.826;2023-07-08T11:45:48;93970.69;;;27.10;42.91
61870;BME280;47810;42.264;23.826;2023-07-08T11:48:15;93975.69;;;27.41;43.83
61870;BME280;47810;42.264;23.826;2023-07-08T11:50:42;93987.09;;;27.30;42.94
61870;BME280;47810;42.264;23.826;2023-07-08T11:53:10;93982.28;;;27.26;41.91
61870;BME280;47810;42.264;23.826;2023-07-08T11:55:55;93984.66;;;26.86;42.02
61870;BME280;47810;42.264;23.826;2023-07-08T12:03:40;93984.88;;;26.84;44.65
61870;BME280;47810;42.264;23.826;2023-07-08T12:08:54;93975.09;;;27.81;41.78
61870;BME280;47810;42.264;23.826;2023-07-08T12:11:24;93973.97;;;28.30;42.29
61870;BME280;47810;42.264;23.826;2023-07-08T12:13:51;93975.19;;;28.14;39.68
61870;BME280;47810;42.264;23.826;2023-07-08T12:16:18;93967.81;;;27.95;42.53
61870;BME280;47810;42.264;23.826;2023-07-08T12:18:44;93971.13;;;27.42;41.86
61870;BME280;47810;42.264;23.826;2023-07-08T12:21:12;93963.84;;;27.14;43.64
61870;BME280;47810;42.264;23.826;2023-07-08T12:23:43;93966.75;;;27.13;43.07
61870;BME280;47810;42.264;23.826;2023-07-08T12:26:09;93965.69;;;26.86;43.27
61870;BME280;47810;42.264;23.826;2023-07-08T12:28:36;93969.72;;;26.47;43.34
61870;BME280;47810;42.264;23.826;2023-07-08T12:31:02;93966.44;;;26.30;45.13
61870;BME280;47810;42.264;23.826;2023-07-08T12:33:32;93968.66;;;26.20;45.95
61870;BME280;47810;42.264;23.826;2023-07-08T12:35:59;93973.91;;;26.07;46.88
61870;BME280;47810;42.264;23.826;2023-07-08T12:40:53;93987.53;;;26.13;45.79
61870;BME280;47810;42.264;23.826;2023-07-08T12:43:18;93974.22;;;26.18;45.72
61870;BME280;47810;42.264;23.826;2023-07-08T12:45:44;93978.09;;;26.74;45.79
61870;BME280;47810;42.264;23.826;2023-07-08T12:48:10;93976.53;;;26.86;45.31
61870;BME280;47810;42.264;23.826;2023-07-08T12:50:35;93979.31;;;27.21;43.43
61870;BME280;47810;42.264;23.826;2023-07-08T12:53:03;93978.66;;;27.18;42.40
61870;BME280;47810;42.264;23.826;2023-07-08T12:55:35;93974.88;;;27.13;43.04
61870;BME280;47810;42.264;23.826;2023-07-08T12:58:01;93971.84;;;27.23;43.30
61870;BME280;47810;42.264;23.826;2023-07-08T13:00:30;93973.19;;;27.40;42.31
61870;BME280;47810;42.264;23.826;2023-07-08T13:03:02;93962.75;;;27.44;41.01
61870;BME280;47810;42.264;23.826;2023-07-08T13:05:30;93971.31;;;27.12;41.49
61870;BME280;47810;42.264;23.826;2023-07-08T13:07:56;93969.31;;;27.21;42.47
61870;BME280;47810;42.264;23.826;2023-07-08T13:10:23;93964.28;;;27.18;43.78
61870;BME280;47810;42.264;23.826;2023-07-08T13:12:51;93964.56;;;27.02;42.55
61870;BME280;47810;42.264;23.826;2023-07-08T13:15:19;93972.22;;;27.20;41.85
61870;BME280;47810;42.264;23.826;2023-07-08T13:17:46;93968.72;;;27.26;40.99
61870;BME280;47810;42.264;23.826;2023-07-08T13:20:16;93972.66;;;27.58;41.34
61870;BME280;47810;42.264;23.826;2023-07-08T13:22:46;93979.72;;;27.17;40.38
61870;BME280;47810;42.264;23.826;2023-07-08T13:25:16;93982.84;;;26.93;39.92
61870;BME280;47810;42.264;23.826;2023-07-08T13:27:42;93989.03;;;26.87;40.70
61870;BME280;47810;42.264;23.826;2023-07-08T13:30:19;93989.16;;;27.00;41.42
61870;BME280;47810;42.264;23.826;2023-07-08T13:32:48;93985.41;;;27.23;41.44
61870;BME280;47810;42.264;23.826;2023-07-08T13:35:20;93988.38;;;27.06;42.28
61870;BME280;47810;42.264;23.826;2023-07-08T13:37:46;93987.72;;;26.76;42.65
61870;BME280;47810;42.264;23.826;2023-07-08T13:40:13;93984.19;;;26.76;42.54
61870;BME280;47810;42.264;23.826;2023-07-08T13:42:49;93984.44;;;26.38;41.07
61870;BME280;47810;42.264;23.826;2023-07-08T13:45:32;93977.97;;;26.17;41.71
61870;BME280;47810;42.264;23.826;2023-07-08T13:48:42;93985.16;;;25.89;43.08
61870;BME280;47810;42.264;23.826;2023-07-08T13:51:20;93978.66;;;25.68;43.92
61870;BME280;47810;42.264;23.826;2023-07-08T13:53:50;93980.69;;;25.66;45.05
61870;BME280;47810;42.264;23.826;2023-07-08T13:56:22;93982.81;;;25.71;45.88
61870;BME280;47810;42.264;23.826;2023-07-08T13:58:49;93977.88;;;25.74;44.80
61870;BME280;47810;42.264;23.826;2023-07-08T14:01:16;93965.69;;;26.00;45.86
61870;BME280;47810;42.264;23.826;2023-07-08T14:03:42;93972.50;;;26.32;45.28
61870;BME280;47810;42.264;23.826;2023-07-08T14:06:27;93967.34;;;26.37;43.17
61870;BME280;47810;42.264;23.826;2023-07-08T14:08:55;93969.47;;;26.42;46.33